Time;durP1;ratioP1;P1;durP2;ratioP2;P2;SDS_P1;SDS_P2;PMS_P1;PMS_P2;Temp;Humidity;BMP_temperature;BMP_pressure;BME280_temperature;BME280_humidity;BME280_pressure;Samples;Min_cycle;Max_cycle;Signal;HPM_P1;HPM_P2
2022/08/05 00:00:23;;;;;;;8.57;2.40;;;30.50;29.00;;;;;;21251787;27;20047;-56
2022/08/05 00:10:25;;;;;;;8.63;3.35;;;30.50;29.20;;;;;;21251633;27;20046;-55
2022/08/05 00:20:26;;;;;;;7.18;2.13;;;30.30;30.00;;;;;;21249790;27;20047;-56
2022/08/05 00:30:28;;;;;;;9.60;2.88;;;30.20;31.00;;;;;;21249158;27;20043;-58
2022/08/05 00:40:30;;;;;;;7.63;2.30;;;30.00;32.20;;;;;;21248155;27;20092;-55
2022/08/05 00:50:31;;;;;;;6.05;2.60;;;30.00;33.40;;;;;;21247761;27;20054;-55
2022/08/05 01:00:33;;;;;;;6.25;2.58;;;29.80;34.70;;;;;;21230201;28;20043;-57
2022/08/05 01:10:43;;;;;;;5.38;2.80;;;29.80;35.80;;;;;;21246934;28;20043;-57
2022/08/05 01:20:52;;;;;;;5.07;2.70;;;29.70;36.80;;;;;;21247422;28;20081;-56
2022/08/05 01:31:27;;;;;;;4.78;2.92;;;29.60;37.70;;;;;;21246482;27;20430;-57
2022/08/05 01:41:34;;;;;;;3.33;2.47;;;29.40;37.90;;;;;;21262013;27;20055;-57
2022/08/05 01:51:46;;;;;;;5.40;2.55;;;29.40;37.70;;;;;;21261867;27;20078;-56
2022/08/05 02:01:56;;;;;;;;;;;29.30;37.50;;;;;;21261287;27;20090;-55
2022/08/05 02:12:22;;;;;;;6.90;2.58;;;29.20;37.10;;;;;;21259275;27;19933;-56
2022/08/05 02:22:29;;;;;;;5.95;2.30;;;29.20;37.20;;;;;;21258973;27;20054;-56
2022/08/05 02:32:35;;;;;;;3.97;2.05;;;29.10;37.20;;;;;;21258578;27;20054;-57
2022/08/05 02:42:38;;;;;;;7.07;3.22;;;29.10;36.70;;;;;;21256396;27;20138;-56
2022/08/05 02:52:43;;;;;;;4.55;2.10;;;29.10;36.80;;;;;;21256772;27;20050;-56
2022/08/05 03:02:47;;;;;;;5.93;2.55;;;29.00;36.20;;;;;;21256245;27;20138;-58
2022/08/05 03:12:50;;;;;;;4.50;2.72;;;28.80;36.10;;;;;;21255660;27;20427;-56
2022/08/05 03:22:54;;;;;;;5.60;2.25;;;28.80;35.80;;;;;;21254867;27;20051;-57
2022/08/05 03:32:57;;;;;;;2.70;1.90;;;28.70;35.40;;;;;;21252972;27;20058;-58
2022/08/05 03:42:59;;;;;;;3.20;2.45;;;28.60;35.60;;;;;;21252115;27;20051;-55
2022/08/05 03:53:10;;;;;;;4.00;2.35;;;28.60;35.70;;;;;;21251502;27;20058;-56
2022/08/05 04:03:14;;;;;;;4.70;2.00;;;28.50;35.60;;;;;;21250314;27;20074;-56
2022/08/05 04:13:17;;;;;;;4.75;2.40;;;28.40;35.30;;;;;;21251736;27;20335;-57
2022/08/05 04:23:20;;;;;;;5.32;2.13;;;28.20;35.40;;;;;;21249090;27;20138;-58
2022/08/05 04:33:22;;;;;;;4.97;2.25;;;28.20;35.50;;;;;;21248627;27;20058;-57
2022/08/05 04:43:24;;;;;;;6.15;2.08;;;28.10;35.60;;;;;;21247964;27;20460;-56
2022/08/05 04:53:26;;;;;;;6.82;2.10;;;28.10;35.40;;;;;;21247682;28;20448;-58
2022/08/05 05:03:28;;;;;;;4.00;2.30;;;28.10;35.40;;;;;;21247815;28;20146;-57
2022/08/05 05:13:30;;;;;;;4.35;2.55;;;28.00;35.80;;;;;;21243255;27;20051;-56
2022/08/05 05:23:32;;;;;;;5.50;2.08;;;28.00;35.70;;;;;;21264811;27;20122;-57
2022/08/05 05:33:34;;;;;;;4.07;2.20;;;28.00;35.70;;;;;;21263029;27;20070;-57
2022/08/05 05:43:35;;;;;;;5.88;2.60;;;27.90;35.90;;;;;;21261318;27;20130;-55
2022/08/05 05:53:37;;;;;;;8.93;3.00;;;27.90;36.00;;;;;;21261954;27;20051;-56
2022/08/05 06:03:40;;;;;;;5.72;3.10;;;27.80;36.30;;;;;;21261030;27;20534;-57
2022/08/05 06:13:43;;;;;;;4.90;2.88;;;27.90;36.40;;;;;;21259023;27;20046;-57
2022/08/05 06:23:45;;;;;;;46.33;6.82;;;27.80;36.20;;;;;;21259392;27;20055;-55
2022/08/05 06:33:47;;;;;;;8.43;2.75;;;27.90;36.60;;;;;;21258456;27;20086;-56
2022/08/05 06:43:49;;;;;;;8.30;2.85;;;28.00;36.20;;;;;;21257411;27;20062;-57
2022/08/05 06:53:51;;;;;;;7.53;2.53;;;28.30;35.60;;;;;;21256877;27;20129;-56
2022/08/05 07:03:53;;;;;;;4.97;2.33;;;28.90;34.50;;;;;;21255683;27;20570;-58
2022/08/05 07:24:16;;;;;;;;;;;29.60;33.50;;;;;;21254660;27;20456;-59
2022/08/05 07:34:18;;;;;;;7.25;2.60;;;29.70;33.60;;;;;;21251626;27;19923;-58
2022/08/05 07:44:20;;;;;;;5.70;2.75;;;30.10;33.70;;;;;;21252174;27;20095;-55
2022/08/05 07:54:27;;;;;;;5.82;3.13;;;30.40;32.40;;;;;;21251585;27;20063;-58
2022/08/05 08:04:29;;;;;;;8.10;2.75;;;30.60;32.40;;;;;;21250612;27;20058;-58
2022/08/05 08:14:31;;;;;;;7.80;3.00;;;30.70;31.90;;;;;;21249706;27;20134;-57
2022/08/05 08:24:34;;;;;;;6.78;2.63;;;30.90;31.80;;;;;;21249300;27;20051;-58
2022/08/05 08:34:35;;;;;;;11.98;2.97;;;31.00;32.10;;;;;;21248307;27;20185;-56
2022/08/05 08:44:38;;;;;;;6.47;2.80;;;31.20;31.90;;;;;;21246814;27;20056;-59
2022/08/05 08:54:42;;;;;;;3.58;2.42;;;31.40;31.30;;;;;;21245643;28;20055;-61
2022/08/05 09:04:45;;;;;;;4.30;2.30;;;31.50;31.10;;;;;;21247368;28;20050;-58
2022/08/05 09:14:47;;;;;;;6.40;2.55;;;31.40;31.30;;;;;;21246856;28;20180;-56
2022/08/05 09:25:02;;;;;;;6.93;2.38;;;31.60;30.90;;;;;;21228024;28;20047;-58
2022/08/05 09:35:13;;;;;;;9.82;3.00;;;31.80;30.90;;;;;;21246207;28;20100;-55
2022/08/05 09:45:15;;;;;;;9.20;3.08;;;31.80;31.00;;;;;;21245019;27;20059;-55
2022/08/05 09:55:17;;;;;;;6.95;2.50;;;31.90;30.80;;;;;;21250102;27;20142;-56
2022/08/05 10:05:22;;;;;;;5.28;2.80;;;32.20;30.20;;;;;;21260296;27;20043;-56
2022/08/05 10:15:27;;;;;;;4.63;2.70;;;32.40;29.90;;;;;;21257906;27;20209;-57
2022/08/05 10:25:29;;;;;;;5.90;2.58;;;32.30;30.30;;;;;;21258107;27;20043;-57
2022/08/05 10:35:32;;;;;;;5.97;2.50;;;32.40;29.90;;;;;;21257922;27;20175;-55
2022/08/05 10:45:34;;;;;;;7.88;3.40;;;32.60;29.50;;;;;;21256048;27;20051;-56
2022/08/05 10:56:03;;;;;;;4.63;3.30;;;32.70;29.50;;;;;;21255749;27;20058;-57
2022/08/05 11:06:08;;;;;;;5.67;3.00;;;32.70;29.40;;;;;;21254621;27;20047;-56
2022/08/05 11:16:23;;;;;;;8.23;3.65;;;32.60;29.40;;;;;;21253733;27;20054;-56
2022/08/05 11:26:25;;;;;;;9.23;3.20;;;33.00;28.60;;;;;;21254737;27;20498;-57
2022/08/05 11:36:39;;;;;;;9.98;3.40;;;33.30;27.50;;;;;;21253016;27;20526;-56
2022/08/05 11:46:48;;;;;;;9.82;3.95;;;33.30;27.60;;;;;;21252172;27;20478;-57
2022/08/05 11:56:52;;;;;;;9.50;2.90;;;33.60;26.80;;;;;;21251007;27;20085;-55
2022/08/05 12:06:58;;;;;;;4.20;2.75;;;33.80;26.10;;;;;;21250291;27;20051;-55
2022/08/05 12:17:09;;;;;;;6.85;2.90;;;33.90;25.10;;;;;;21249988;27;20058;-56
2022/08/05 12:27:26;;;;;;;6.45;2.83;;;34.10;24.30;;;;;;21248619;27;20184;-54
2022/08/05 12:37:28;;;;;;;5.63;2.90;;;34.60;23.70;;;;;;21229146;27;20051;-56
2022/08/05 12:47:30;;;;;;;6.93;2.88;;;34.80;23.20;;;;;;21247585;27;20139;-57
2022/08/05 12:57:35;;;;;;;6.22;2.65;;;34.90;22.90;;;;;;21247468;28;20386;-56
2022/08/05 13:07:39;;;;;;;5.93;3.05;;;34.90;22.60;;;;;;21247434;28;20070;-57
2022/08/05 13:17:54;;;;;;;7.47;3.08;;;35.20;22.60;;;;;;21246397;28;20127;-57
2022/08/05 13:27:56;;;;;;;7.32;3.00;;;35.50;22.50;;;;;;21250278;27;20498;-56
2022/08/05 13:37:58;;;;;;;9.43;3.10;;;35.40;21.90;;;;;;21234866;27;20062;-55
2022/08/05 13:48:00;;;;;;;7.45;3.17;;;35.60;21.90;;;;;;21261517;27;20126;-55
2022/08/05 13:58:02;;;;;;;8.18;3.53;;;35.70;21.70;;;;;;21261555;27;20039;-56
2022/08/05 14:08:04;;;;;;;6.85;3.10;;;35.70;22.00;;;;;;21259761;27;20040;-56
2022/08/05 14:18:06;;;;;;;11.95;3.30;;;35.70;21.40;;;;;;21239969;27;20075;-56
2022/08/05 14:28:07;;;;;;;9.32;3.50;;;36.00;21.20;;;;;;21259735;27;20039;-56
2022/08/05 14:38:09;;;;;;;6.20;3.15;;;35.80;21.60;;;;;;21256206;27;20061;-54
2022/08/05 14:48:11;;;;;;;6.28;3.20;;;35.90;20.40;;;;;;21256330;27;20506;-58
2022/08/05 14:58:12;;;;;;;4.85;3.03;;;36.10;21.00;;;;;;21257095;27;20066;-61
2022/08/05 15:08:14;;;;;;;5.95;2.75;;;36.10;21.00;;;;;;21255770;27;20051;-57
2022/08/05 15:18:16;;;;;;;5.53;3.10;;;36.00;20.80;;;;;;21254021;27;20075;-58
2022/08/05 15:28:17;;;;;;;6.55;2.95;;;36.10;20.30;;;;;;21255355;27;20049;-57
2022/08/05 15:38:19;;;;;;;7.50;3.70;;;36.10;20.10;;;;;;21254445;27;20059;-59
2022/08/05 15:48:21;;;;;;;6.30;2.95;;;36.30;20.40;;;;;;21252271;27;20047;-58
2022/08/05 15:58:22;;;;;;;6.05;2.90;;;36.30;20.30;;;;;;21250287;27;20078;-59
2022/08/05 16:08:24;;;;;;;7.85;3.75;;;36.10;20.60;;;;;;21251097;27;20068;-59
2022/08/05 16:18:26;;;;;;;5.88;3.40;;;36.30;20.50;;;;;;21250695;27;20133;-60
2022/08/05 16:28:28;;;;;;;6.68;2.97;;;36.50;20.70;;;;;;21250466;27;20407;-59
2022/08/05 16:38:30;;;;;;;7.45;2.90;;;36.40;20.90;;;;;;21248201;27;20086;-59
2022/08/05 16:48:32;;;;;;;5.35;2.60;;;36.30;19.90;;;;;;21249056;27;20039;-58
2022/08/05 16:58:34;;;;;;;4.45;2.80;;;36.30;20.40;;;;;;21248006;28;20058;-60
2022/08/05 17:08:35;;;;;;;17.58;5.75;;;36.10;20.60;;;;;;21260166;27;20051;-58
2022/08/05 17:18:37;;;;;;;4.88;3.50;;;36.10;20.50;;;;;;21244787;27;20051;-58
2022/08/05 17:28:39;;;;;;;4.10;2.65;;;36.30;20.50;;;;;;21263016;27;20082;-58
2022/08/05 17:38:41;;;;;;;7.38;3.00;;;36.00;20.30;;;;;;21262011;27;20051;-59
2022/08/05 17:48:43;;;;;;;4.03;3.13;;;35.90;19.50;;;;;;21261364;27;20070;-58
2022/08/05 17:58:45;;;;;;;4.63;2.72;;;35.80;20.00;;;;;;21261075;27;20078;-55
2022/08/05 18:08:46;;;;;;;5.55;2.80;;;35.70;20.10;;;;;;21260310;27;20135;-57
2022/08/05 18:18:48;;;;;;;5.03;2.60;;;35.50;20.50;;;;;;21257729;27;20051;-60
2022/08/05 18:28:53;;;;;;;7.10;3.45;;;35.30;20.50;;;;;;21258542;27;20053;-58
2022/08/05 18:39:04;;;;;;;6.97;3.38;;;35.20;21.80;;;;;;21240717;27;20061;-58
2022/08/05 18:59:45;;;;;;;7.93;3.50;;;34.90;22.10;;;;;;21255767;27;20092;-55
2022/08/05 19:09:47;;;;;;;7.35;3.45;;;34.70;22.30;;;;;;21255087;27;20448;-57
2022/08/05 19:19:48;;;;;;;5.15;3.85;;;34.60;22.30;;;;;;21254791;27;20047;-58
2022/08/05 19:29:50;;;;;;;5.18;4.22;;;34.40;22.40;;;;;;21252792;27;20054;-57
2022/08/05 19:39:52;;;;;;;8.48;4.03;;;34.30;22.80;;;;;;21251330;27;20135;-59
2022/08/05 19:49:53;;;;;;;8.63;4.30;;;34.10;23.00;;;;;;21251237;27;20091;-59
2022/08/05 19:59:55;;;;;;;7.25;4.85;;;34.00;23.20;;;;;;21250726;27;20496;-55
2022/08/05 20:09:56;;;;;;;9.38;4.60;;;33.70;23.60;;;;;;21250755;27;20095;-58
2022/08/05 20:20:00;;;;;;;7.03;4.20;;;33.60;23.90;;;;;;21249556;27;20103;-57
2022/08/05 20:30:01;;;;;;;8.68;4.35;;;33.50;24.00;;;;;;21249636;27;20515;-55
2022/08/05 20:40:03;;;;;;;9.23;5.82;;;33.30;24.40;;;;;;21248802;27;20109;-57
2022/08/05 20:50:05;;;;;;;8.38;5.30;;;33.10;25.00;;;;;;21248503;27;20446;-57
2022/08/05 21:00:09;;;;;;;10.23;5.18;;;32.80;25.50;;;;;;21246696;28;20043;-58
2022/08/05 21:10:11;;;;;;;9.48;6.15;;;32.60;26.10;;;;;;21248043;28;20514;-60
2022/08/05 21:20:13;;;;;;;10.00;4.93;;;32.50;25.70;;;;;;21247142;28;20403;-61
2022/08/05 21:30:14;;;;;;;10.15;5.60;;;32.30;26.10;;;;;;21246579;28;20415;-57
2022/08/05 21:40:16;;;;;;;8.90;5.68;;;32.20;26.20;;;;;;21246426;28;20392;-57
2022/08/05 21:50:19;;;;;;;7.88;5.70;;;32.10;26.90;;;;;;21249400;27;20129;-60
2022/08/05 22:00:21;;;;;;;7.30;5.43;;;31.90;26.60;;;;;;21260830;27;20046;-58
2022/08/05 22:10:23;;;;;;;10.52;7.03;;;31.60;26.90;;;;;;21260777;27;20043;-59
2022/08/05 22:20:25;;;;;;;7.55;6.22;;;31.60;27.00;;;;;;21258495;27;20047;-59
2022/08/05 22:30:26;;;;;;;10.15;6.50;;;31.40;27.20;;;;;;21259505;27;20088;-59
2022/08/05 22:40:28;;;;;;;9.77;7.30;;;31.30;27.60;;;;;;21257893;27;20057;-58
2022/08/05 22:50:30;;;;;;;10.90;6.20;;;31.20;27.80;;;;;;21257785;27;20104;-55
2022/08/05 23:00:31;;;;;;;8.98;6.30;;;31.10;27.90;;;;;;21255644;27;20086;-57
2022/08/05 23:10:33;;;;;;;8.25;5.88;;;31.00;28.40;;;;;;21256168;27;20043;-59
2022/08/05 23:20:35;;;;;;;10.45;6.38;;;30.80;29.10;;;;;;21253633;27;20143;-59
2022/08/05 23:30:37;;;;;;;9.25;5.10;;;30.70;29.60;;;;;;21253603;27;20121;-59
2022/08/05 23:40:39;;;;;;;9.32;4.50;;;30.80;27.90;;;;;;21253156;27;20138;-58
2022/08/05 23:50:40;;;;;;;7.20;3.53;;;30.90;26.50;;;;;;21233111;27;20095;-55
